createdAt,value
2022-12-23T00:02:35.643Z,1.40
2022-12-23T00:08:02.846Z,2.83
2022-12-23T00:13:22.760Z,1.30
2022-12-23T00:18:25.391Z,0.90
2022-12-23T00:23:27.692Z,0.68
2022-12-23T00:28:32.151Z,0.52
2022-12-23T00:33:39.852Z,0.85
2022-12-23T00:39:00.091Z,0.95
2022-12-23T00:44:03.238Z,0.32
2022-12-23T00:49:23.852Z,0.73
2022-12-23T00:54:26.274Z,0.80
2022-12-23T00:59:27.968Z,0.55
2022-12-23T01:04:48.114Z,0.60
2022-12-23T01:09:49.662Z,0.43
2022-12-23T01:15:04.698Z,0.47
2022-12-23T01:20:09.308Z,0.98
2022-12-23T01:25:11.252Z,0.77
2022-12-23T01:30:13.475Z,0.52
2022-12-23T01:35:15.519Z,1.45
2022-12-23T01:41:09.251Z,1.42
2022-12-23T01:46:11.763Z,1.33
2022-12-23T01:51:18.340Z,1.25
2022-12-23T01:56:24.833Z,0.95
2022-12-23T02:01:45.739Z,1.00
2022-12-23T02:07:09.608Z,0.22
2022-12-23T02:19:45.297Z,0.93
2022-12-23T02:24:56.073Z,1.38
2022-12-23T02:30:20.017Z,0.40
2022-12-23T02:36:15.676Z,1.33
2022-12-23T02:41:28.798Z,0.22
2022-12-23T02:46:45.744Z,0.30
2022-12-23T02:51:51.030Z,0.70
2022-12-23T02:56:54.457Z,0.82
2022-12-23T03:01:57.462Z,1.30
2022-12-23T03:07:04.487Z,0.47
2022-12-23T03:17:47.077Z,1.42
2022-12-23T03:23:01.580Z,0.75
2022-12-23T03:28:40.105Z,0.55
2022-12-23T03:33:46.433Z,0.63
2022-12-23T03:38:51.956Z,0.25
2022-12-23T03:44:02.488Z,0.90
2022-12-23T03:49:09.135Z,0.55
2022-12-23T03:54:17.131Z,1.05
2022-12-23T03:59:20.802Z,0.30
2022-12-23T04:04:40.641Z,0.03
2022-12-23T04:09:42.936Z,0.63
2022-12-23T04:15:10.708Z,0.77
2022-12-23T04:20:15.731Z,0.10
2022-12-23T04:25:18.185Z,0.30
2022-12-23T04:30:19.924Z,0.30
2022-12-23T04:35:21.645Z,0.30
2022-12-23T04:40:23.591Z,1.00
2022-12-23T04:45:25.282Z,0.32
2022-12-23T04:50:26.997Z,0.70
2022-12-23T04:55:28.633Z,0.55
2022-12-23T05:00:34.107Z,0.47
2022-12-23T05:05:44.299Z,0.68
2022-12-23T05:10:46.020Z,0.30
2022-12-23T05:15:50.794Z,0.52
2022-12-23T05:20:52.531Z,0.52
2022-12-23T05:25:54.897Z,0.80
2022-12-23T05:31:03.831Z,0.10
2022-12-23T05:36:06.051Z,0.28
2022-12-23T05:41:10.986Z,0.63
2022-12-23T05:46:16.927Z,0.00
2022-12-23T05:51:21.583Z,0.63
2022-12-23T05:56:23.211Z,0.60
2022-12-23T06:01:24.875Z,0.30
2022-12-23T06:06:26.407Z,0.20
2022-12-23T06:11:28.241Z,0.73
2022-12-23T06:16:29.918Z,0.63
2022-12-23T06:21:32.075Z,0.38
2022-12-23T06:26:34.363Z,0.40
2022-12-23T06:31:35.944Z,0.50
2022-12-23T06:36:37.741Z,0.10
2022-12-23T06:41:39.512Z,1.00
2022-12-23T06:46:41.077Z,0.35
2022-12-23T06:51:42.637Z,0.70
2022-12-23T06:56:45.415Z,0.35
2022-12-23T07:01:49.457Z,0.20
2022-12-23T07:06:51.200Z,0.10
2022-12-23T07:11:53.047Z,0.70
2022-12-23T07:16:54.803Z,0.52
2022-12-23T07:21:56.384Z,0.10
2022-12-23T07:26:58.115Z,0.38
2022-12-23T07:32:01.883Z,0.13
2022-12-23T07:37:03.538Z,0.43
2022-12-23T07:47:26.685Z,1.13
2022-12-23T07:52:30.029Z,0.45
2022-12-23T07:57:37.821Z,0.10
2022-12-23T08:02:40.172Z,0.22
2022-12-23T08:07:42.294Z,0.63
2022-12-23T08:12:44.153Z,0.55
2022-12-23T08:17:45.873Z,0.40
2022-12-23T08:22:47.556Z,0.60
2022-12-23T08:27:50.985Z,1.48
2022-12-23T08:32:52.652Z,0.77
2022-12-23T08:37:54.176Z,0.45
2022-12-23T08:42:55.811Z,0.32
2022-12-23T08:47:57.293Z,0.40
2022-12-23T08:52:58.945Z,1.10
2022-12-23T08:58:00.437Z,0.70
2022-12-23T09:03:02.261Z,0.32
2022-12-23T09:08:03.969Z,0.88
2022-12-23T09:13:05.497Z,0.38
2022-12-23T09:18:06.990Z,0.70
2022-12-23T09:23:08.562Z,0.90
2022-12-23T09:28:10.306Z,0.57
2022-12-23T09:33:11.891Z,0.55
2022-12-23T09:38:13.498Z,0.75
2022-12-23T09:43:23.175Z,0.30
2022-12-23T09:48:29.128Z,1.77
2022-12-23T09:53:49.372Z,0.63
2022-12-23T09:59:09.178Z,0.95
2022-12-23T10:04:22.990Z,1.07
2022-12-23T10:09:24.662Z,1.52
2022-12-23T10:14:34.868Z,2.50
2022-12-23T10:19:43.585Z,1.48
2022-12-23T10:24:46.883Z,4.40
2022-12-23T10:29:48.677Z,2.78
2022-12-23T10:35:08.308Z,2.47
2022-12-23T10:40:21.057Z,1.27
2022-12-23T10:45:36.300Z,1.75
2022-12-23T10:50:46.298Z,1.17
2022-12-23T10:55:50.370Z,1.42
2022-12-23T11:01:00.230Z,2.25
2022-12-23T11:06:02.923Z,3.60
2022-12-23T11:11:05.933Z,2.92
2022-12-23T11:16:27.026Z,4.60
2022-12-23T11:21:30.501Z,2.53
2022-12-23T11:26:32.529Z,4.30
2022-12-23T11:31:36.575Z,1.60
2022-12-23T11:36:38.419Z,2.42
2022-12-23T11:41:47.770Z,1.70
2022-12-23T11:46:50.248Z,1.10
2022-12-23T11:52:02.555Z,0.80
2022-12-23T11:57:08.199Z,0.73
2022-12-23T12:02:18.393Z,1.23
2022-12-23T12:07:20.247Z,1.30
2022-12-23T12:12:22.139Z,1.55
2022-12-23T12:17:36.048Z,0.95
2022-12-23T12:23:07.133Z,1.17
2022-12-23T12:28:21.180Z,0.45
2022-12-23T12:33:33.585Z,2.17
2022-12-23T12:38:38.479Z,3.17
2022-12-23T12:44:19.087Z,2.45
2022-12-23T12:49:31.445Z,4.03
2022-12-23T12:55:02.495Z,3.33
2022-12-23T13:00:06.968Z,1.48
2022-12-23T13:05:30.726Z,1.92
2022-12-23T13:10:57.173Z,1.83
2022-12-23T13:16:32.821Z,1.92
2022-12-23T13:22:08.775Z,2.78
2022-12-23T13:27:21.985Z,2.83
2022-12-23T13:32:59.212Z,1.70
2022-12-23T13:38:16.130Z,3.10
2022-12-23T13:43:23.935Z,1.88
2022-12-23T13:48:49.555Z,2.25
2022-12-23T13:54:04.585Z,0.98
2022-12-23T13:59:10.976Z,1.45
2022-12-23T14:04:34.697Z,0.98
2022-12-23T14:09:38.716Z,0.60
2022-12-23T14:15:02.608Z,0.40
2022-12-23T14:20:21.305Z,1.00
2022-12-23T14:25:35.286Z,1.05
2022-12-23T14:30:42.900Z,1.63
2022-12-23T14:35:44.423Z,1.02
2022-12-23T14:40:45.909Z,0.28
2022-12-23T14:45:52.311Z,1.27
2022-12-23T14:51:02.190Z,0.80
2022-12-23T14:56:21.835Z,0.35
2022-12-23T15:01:33.494Z,0.50
2022-12-23T15:06:41.482Z,0.77
2022-12-23T15:11:46.371Z,1.05
2022-12-23T15:16:48.088Z,0.82
2022-12-23T15:22:00.292Z,1.13
2022-12-23T15:27:26.533Z,1.73
2022-12-23T15:32:29.638Z,0.63
2022-12-23T15:37:32.431Z,0.77
2022-12-23T15:42:38.532Z,0.90
2022-12-23T15:47:45.922Z,0.68
2022-12-23T15:52:50.609Z,0.77
2022-12-23T15:57:52.708Z,0.93
2022-12-23T16:03:00.989Z,1.23
2022-12-23T16:08:28.579Z,1.20
2022-12-23T16:13:32.015Z,1.30
2022-12-23T16:18:47.199Z,0.52
2022-12-23T16:23:52.477Z,1.08
2022-12-23T16:29:00.814Z,0.88
2022-12-23T16:34:07.025Z,0.82
2022-12-23T16:39:21.800Z,0.88
2022-12-23T16:44:28.595Z,0.52
2022-12-23T16:49:33.830Z,1.52
2022-12-23T16:54:35.792Z,0.98
2022-12-23T16:59:41.010Z,1.50
2022-12-23T17:04:42.554Z,2.47
2022-12-23T17:09:44.077Z,0.85
2022-12-23T17:14:47.927Z,1.13
2022-12-23T17:19:49.845Z,1.33
2022-12-23T17:24:52.324Z,1.58
2022-12-23T17:29:53.842Z,0.60
2022-12-23T17:34:55.403Z,0.63
2022-12-23T17:39:57.381Z,1.13
2022-12-23T17:44:58.923Z,1.52
2022-12-23T17:50:00.489Z,0.43
2022-12-23T17:55:02.101Z,0.95
2022-12-23T18:00:04.135Z,0.95
2022-12-23T18:05:19.320Z,0.63
2022-12-23T18:10:24.502Z,0.43
2022-12-23T18:15:32.625Z,1.20
2022-12-23T18:20:34.261Z,0.80
2022-12-23T18:25:35.786Z,0.90
2022-12-23T18:30:38.494Z,0.65
2022-12-23T18:35:48.858Z,0.40
2022-12-23T18:40:53.879Z,0.28
2022-12-23T18:45:56.581Z,0.20
2022-12-23T18:50:59.097Z,1.10
2022-12-23T18:56:04.860Z,1.10
2022-12-23T19:01:14.258Z,0.55
2022-12-23T19:06:16.136Z,0.43
2022-12-23T19:11:20.448Z,0.90
2022-12-23T19:16:22.363Z,0.00
2022-12-23T19:21:23.895Z,1.60
2022-12-23T19:26:25.551Z,1.10
2022-12-23T19:31:27.155Z,0.80
2022-12-23T19:36:29.246Z,0.32
2022-12-23T19:41:32.035Z,0.80
2022-12-23T19:46:33.835Z,0.82
2022-12-23T19:51:35.470Z,0.98
2022-12-23T19:56:36.990Z,0.00
2022-12-23T20:01:38.720Z,0.17
2022-12-23T20:06:41.731Z,0.85
2022-12-23T20:11:45.759Z,0.60
2022-12-23T20:16:48.607Z,0.15
2022-12-23T20:21:50.414Z,0.10
2022-12-23T20:26:52.089Z,0.00
2022-12-23T20:31:53.606Z,0.40
2022-12-23T20:36:55.242Z,0.10
2022-12-23T20:41:57.446Z,0.80
2022-12-23T20:46:59.047Z,0.38
2022-12-23T20:52:00.979Z,0.68
2022-12-23T20:57:02.896Z,0.45
2022-12-23T21:02:04.545Z,0.17
2022-12-23T21:07:06.443Z,0.00
2022-12-23T21:12:08.036Z,0.00
2022-12-23T21:17:09.621Z,0.50
2022-12-23T21:22:11.183Z,1.27
2022-12-23T21:27:12.728Z,0.35
2022-12-23T21:32:14.392Z,0.00
2022-12-23T21:37:15.968Z,0.10
2022-12-23T21:42:18.470Z,0.98
2022-12-23T21:47:20.980Z,0.43
2022-12-23T21:52:24.518Z,0.90
2022-12-23T21:57:28.066Z,0.20
2022-12-23T22:02:29.966Z,0.45
2022-12-23T22:07:31.514Z,0.00
2022-12-23T22:12:33.027Z,0.30
2022-12-23T22:17:34.575Z,0.03
2022-12-23T22:22:36.076Z,0.08
2022-12-23T22:27:37.568Z,0.05
2022-12-23T22:32:42.369Z,0.00
2022-12-23T22:37:44.295Z,0.00
2022-12-23T22:42:45.817Z,0.63
2022-12-23T22:47:47.336Z,0.17
2022-12-23T22:52:48.954Z,0.40
2022-12-23T22:57:50.530Z,1.10
2022-12-23T23:02:52.207Z,0.32
2022-12-23T23:07:53.868Z,0.65
2022-12-23T23:12:55.368Z,0.15
2022-12-23T23:17:56.998Z,0.65
2022-12-23T23:23:00.611Z,0.05
2022-12-23T23:28:02.241Z,1.05
2022-12-23T23:33:04.697Z,0.00
2022-12-23T23:38:06.394Z,0.00
2022-12-23T23:43:08.358Z,0.00
2022-12-23T23:48:12.122Z,0.08
2022-12-23T23:53:15.575Z,0.30
2022-12-23T23:58:17.905Z,0.20
